sensor_id;sensor_type;location;lat;lon;timestamp;P1;durP1;ratioP1;P2;durP2;ratioP2
18669;SDS011;9464;44.918;9.670;2022-10-16T00:01:38;10.00;;;7.23;;
18669;SDS011;9464;44.918;9.670;2022-10-16T00:04:06;11.37;;;7.77;;
18669;SDS011;9464;44.918;9.670;2022-10-16T00:06:37;10.13;;;7.10;;
18669;SDS011;9464;44.918;9.670;2022-10-16T00:09:05;9.63;;;7.27;;
18669;SDS011;9464;44.918;9.670;2022-10-16T00:11:35;11.33;;;7.60;;
18669;SDS011;9464;44.918;9.670;2022-10-16T00:14:05;11.13;;;7.77;;
18669;SDS011;9464;44.918;9.670;2022-10-16T00:16:35;14.73;;;7.07;;
18669;SDS011;9464;44.918;9.670;2022-10-16T00:19:03;10.63;;;7.03;;
18669;SDS011;9464;44.918;9.670;2022-10-16T00:21:32;13.70;;;8.07;;
18669;SDS011;9464;44.918;9.670;2022-10-16T00:24:03;11.83;;;7.63;;
18669;SDS011;9464;44.918;9.670;2022-10-16T00:26:32;12.43;;;8.00;;
18669;SDS011;9464;44.918;9.670;2022-10-16T00:29:01;11.53;;;8.10;;
18669;SDS011;9464;44.918;9.670;2022-10-16T00:31:31;12.30;;;7.07;;
18669;SDS011;9464;44.918;9.670;2022-10-16T00:33:59;9.07;;;7.50;;
18669;SDS011;9464;44.918;9.670;2022-10-16T00:36:27;13.00;;;7.97;;
18669;SDS011;9464;44.918;9.670;2022-10-16T00:38:57;14.23;;;7.27;;
18669;SDS011;9464;44.918;9.670;2022-10-16T00:41:33;12.90;;;7.50;;
18669;SDS011;9464;44.918;9.670;2022-10-16T00:44:02;11.80;;;7.27;;
18669;SDS011;9464;44.918;9.670;2022-10-16T00:46:34;13.40;;;7.43;;
18669;SDS011;9464;44.918;9.670;2022-10-16T00:49:05;10.13;;;6.97;;
18669;SDS011;9464;44.918;9.670;2022-10-16T00:51:37;10.77;;;7.07;;
18669;SDS011;9464;44.918;9.670;2022-10-16T00:54:09;15.53;;;7.53;;
18669;SDS011;9464;44.918;9.670;2022-10-16T00:56:40;9.07;;;6.63;;
18669;SDS011;9464;44.918;9.670;2022-10-16T00:59:14;10.57;;;6.67;;
18669;SDS011;9464;44.918;9.670;2022-10-16T01:01:43;13.33;;;7.40;;
18669;SDS011;9464;44.918;9.670;2022-10-16T01:04:12;11.43;;;7.27;;
18669;SDS011;9464;44.918;9.670;2022-10-16T01:06:42;9.53;;;6.77;;
18669;SDS011;9464;44.918;9.670;2022-10-16T01:09:16;8.17;;;6.30;;
18669;SDS011;9464;44.918;9.670;2022-10-16T01:11:54;13.40;;;7.73;;
18669;SDS011;9464;44.918;9.670;2022-10-16T01:14:32;13.10;;;7.33;;
18669;SDS011;9464;44.918;9.670;2022-10-16T01:17:08;14.30;;;6.90;;
18669;SDS011;9464;44.918;9.670;2022-10-16T01:19:44;8.90;;;7.23;;
18669;SDS011;9464;44.918;9.670;2022-10-16T01:22:31;13.37;;;7.83;;
18669;SDS011;9464;44.918;9.670;2022-10-16T01:25:05;11.30;;;6.67;;
18669;SDS011;9464;44.918;9.670;2022-10-16T01:27:40;10.83;;;7.53;;
18669;SDS011;9464;44.918;9.670;2022-10-16T01:30:12;13.27;;;6.80;;
18669;SDS011;9464;44.918;9.670;2022-10-16T01:32:45;15.67;;;7.27;;
18669;SDS011;9464;44.918;9.670;2022-10-16T01:35:18;11.30;;;6.60;;
18669;SDS011;9464;44.918;9.670;2022-10-16T01:37:51;11.17;;;7.10;;
18669;SDS011;9464;44.918;9.670;2022-10-16T01:40:24;13.20;;;7.03;;
18669;SDS011;9464;44.918;9.670;2022-10-16T01:42:56;12.23;;;6.83;;
18669;SDS011;9464;44.918;9.670;2022-10-16T01:45:28;11.43;;;6.60;;
18669;SDS011;9464;44.918;9.670;2022-10-16T01:47:59;9.03;;;6.57;;
18669;SDS011;9464;44.918;9.670;2022-10-16T01:50:30;10.37;;;7.27;;
18669;SDS011;9464;44.918;9.670;2022-10-16T01:53:00;9.47;;;6.43;;
18669;SDS011;9464;44.918;9.670;2022-10-16T01:55:31;7.13;;;5.93;;
18669;SDS011;9464;44.918;9.670;2022-10-16T01:58:04;10.97;;;6.57;;
18669;SDS011;9464;44.918;9.670;2022-10-16T02:00:35;10.97;;;6.40;;
18669;SDS011;9464;44.918;9.670;2022-10-16T02:03:05;10.70;;;6.77;;
18669;SDS011;9464;44.918;9.670;2022-10-16T02:05:36;7.57;;;6.33;;
18669;SDS011;9464;44.918;9.670;2022-10-16T02:08:08;9.43;;;6.20;;
18669;SDS011;9464;44.918;9.670;2022-10-16T02:10:36;10.43;;;7.10;;
18669;SDS011;9464;44.918;9.670;2022-10-16T02:13:07;8.93;;;6.60;;
18669;SDS011;9464;44.918;9.670;2022-10-16T02:15:38;10.47;;;6.00;;
18669;SDS011;9464;44.918;9.670;2022-10-16T02:18:06;8.70;;;6.40;;
18669;SDS011;9464;44.918;9.670;2022-10-16T02:20:36;7.87;;;6.07;;
18669;SDS011;9464;44.918;9.670;2022-10-16T02:23:11;8.70;;;5.80;;
18669;SDS011;9464;44.918;9.670;2022-10-16T02:25:44;11.93;;;6.40;;
18669;SDS011;9464;44.918;9.670;2022-10-16T02:28:16;9.93;;;6.53;;
18669;SDS011;9464;44.918;9.670;2022-10-16T02:30:50;9.63;;;6.70;;
18669;SDS011;9464;44.918;9.670;2022-10-16T02:33:21;9.83;;;6.90;;
18669;SDS011;9464;44.918;9.670;2022-10-16T02:35:50;10.93;;;6.60;;
18669;SDS011;9464;44.918;9.670;2022-10-16T02:38:20;10.53;;;6.63;;
18669;SDS011;9464;44.918;9.670;2022-10-16T02:40:50;9.63;;;6.40;;
18669;SDS011;9464;44.918;9.670;2022-10-16T02:43:20;10.33;;;6.67;;
18669;SDS011;9464;44.918;9.670;2022-10-16T02:45:48;8.67;;;6.17;;
18669;SDS011;9464;44.918;9.670;2022-10-16T02:48:16;7.80;;;6.07;;
18669;SDS011;9464;44.918;9.670;2022-10-16T02:50:44;9.33;;;6.37;;
18669;SDS011;9464;44.918;9.670;2022-10-16T02:53:12;8.40;;;5.83;;
18669;SDS011;9464;44.918;9.670;2022-10-16T02:55:40;8.97;;;5.67;;
18669;SDS011;9464;44.918;9.670;2022-10-16T02:58:08;8.03;;;5.93;;
18669;SDS011;9464;44.918;9.670;2022-10-16T03:00:38;7.57;;;5.97;;
18669;SDS011;9464;44.918;9.670;2022-10-16T03:03:06;10.27;;;6.27;;
18669;SDS011;9464;44.918;9.670;2022-10-16T03:05:34;10.43;;;6.37;;
18669;SDS011;9464;44.918;9.670;2022-10-16T03:08:03;9.73;;;5.90;;
18669;SDS011;9464;44.918;9.670;2022-10-16T03:10:31;7.67;;;6.13;;
18669;SDS011;9464;44.918;9.670;2022-10-16T03:12:59;8.03;;;5.83;;
18669;SDS011;9464;44.918;9.670;2022-10-16T03:15:27;12.57;;;6.70;;
18669;SDS011;9464;44.918;9.670;2022-10-16T03:17:58;11.43;;;6.30;;
18669;SDS011;9464;44.918;9.670;2022-10-16T03:20:26;8.70;;;6.37;;
18669;SDS011;9464;44.918;9.670;2022-10-16T03:22:54;8.73;;;5.93;;
18669;SDS011;9464;44.918;9.670;2022-10-16T03:25:22;10.13;;;6.03;;
18669;SDS011;9464;44.918;9.670;2022-10-16T03:27:50;10.40;;;6.10;;
18669;SDS011;9464;44.918;9.670;2022-10-16T03:30:19;10.23;;;6.50;;
18669;SDS011;9464;44.918;9.670;2022-10-16T03:32:47;7.93;;;6.10;;
18669;SDS011;9464;44.918;9.670;2022-10-16T03:35:21;9.07;;;5.93;;
18669;SDS011;9464;44.918;9.670;2022-10-16T03:37:50;7.10;;;5.43;;
18669;SDS011;9464;44.918;9.670;2022-10-16T03:40:19;10.77;;;5.93;;
18669;SDS011;9464;44.918;9.670;2022-10-16T03:42:47;9.07;;;6.27;;
18669;SDS011;9464;44.918;9.670;2022-10-16T03:45:15;6.20;;;4.93;;
18669;SDS011;9464;44.918;9.670;2022-10-16T03:47:44;11.40;;;6.90;;
18669;SDS011;9464;44.918;9.670;2022-10-16T03:50:12;9.90;;;5.30;;
18669;SDS011;9464;44.918;9.670;2022-10-16T03:52:41;7.07;;;5.23;;
18669;SDS011;9464;44.918;9.670;2022-10-16T03:55:09;7.73;;;5.43;;
18669;SDS011;9464;44.918;9.670;2022-10-16T03:57:37;7.57;;;4.93;;
18669;SDS011;9464;44.918;9.670;2022-10-16T04:00:06;10.60;;;5.43;;
18669;SDS011;9464;44.918;9.670;2022-10-16T04:02:35;6.23;;;4.83;;
18669;SDS011;9464;44.918;9.670;2022-10-16T04:05:03;6.50;;;4.63;;
18669;SDS011;9464;44.918;9.670;2022-10-16T04:07:31;7.30;;;4.50;;
18669;SDS011;9464;44.918;9.670;2022-10-16T04:10:01;5.67;;;4.80;;
18669;SDS011;9464;44.918;9.670;2022-10-16T04:12:29;6.47;;;4.80;;
18669;SDS011;9464;44.918;9.670;2022-10-16T04:14:57;5.13;;;4.30;;
18669;SDS011;9464;44.918;9.670;2022-10-16T04:17:25;5.53;;;4.20;;
18669;SDS011;9464;44.918;9.670;2022-10-16T04:19:54;6.63;;;5.07;;
18669;SDS011;9464;44.918;9.670;2022-10-16T04:22:22;7.80;;;4.23;;
18669;SDS011;9464;44.918;9.670;2022-10-16T04:24:50;7.40;;;4.57;;
18669;SDS011;9464;44.918;9.670;2022-10-16T04:27:20;8.20;;;4.47;;
18669;SDS011;9464;44.918;9.670;2022-10-16T04:29:48;7.70;;;5.10;;
18669;SDS011;9464;44.918;9.670;2022-10-16T04:32:16;11.43;;;6.60;;
18669;SDS011;9464;44.918;9.670;2022-10-16T04:34:44;13.30;;;6.00;;
18669;SDS011;9464;44.918;9.670;2022-10-16T04:37:12;10.30;;;6.60;;
18669;SDS011;9464;44.918;9.670;2022-10-16T04:39:40;9.73;;;5.93;;
18669;SDS011;9464;44.918;9.670;2022-10-16T04:42:08;14.23;;;6.33;;
18669;SDS011;9464;44.918;9.670;2022-10-16T04:44:38;10.90;;;5.77;;
18669;SDS011;9464;44.918;9.670;2022-10-16T04:47:06;8.77;;;5.90;;
18669;SDS011;9464;44.918;9.670;2022-10-16T04:49:34;7.53;;;4.93;;
18669;SDS011;9464;44.918;9.670;2022-10-16T04:52:02;8.20;;;5.57;;
18669;SDS011;9464;44.918;9.670;2022-10-16T04:54:31;11.63;;;6.07;;
18669;SDS011;9464;44.918;9.670;2022-10-16T04:56:59;10.43;;;5.63;;
18669;SDS011;9464;44.918;9.670;2022-10-16T04:59:27;8.30;;;5.30;;
18669;SDS011;9464;44.918;9.670;2022-10-16T05:01:56;11.97;;;5.20;;
18669;SDS011;9464;44.918;9.670;2022-10-16T05:04:24;9.80;;;5.13;;
18669;SDS011;9464;44.918;9.670;2022-10-16T05:06:53;10.90;;;5.60;;
18669;SDS011;9464;44.918;9.670;2022-10-16T05:09:21;10.57;;;5.70;;
18669;SDS011;9464;44.918;9.670;2022-10-16T05:11:49;9.50;;;5.37;;
18669;SDS011;9464;44.918;9.670;2022-10-16T05:14:17;7.87;;;4.80;;
18669;SDS011;9464;44.918;9.670;2022-10-16T05:16:45;6.03;;;4.23;;
18669;SDS011;9464;44.918;9.670;2022-10-16T05:19:15;6.57;;;4.00;;
18669;SDS011;9464;44.918;9.670;2022-10-16T05:21:59;3.77;;;3.27;;
18669;SDS011;9464;44.918;9.670;2022-10-16T05:24:27;6.73;;;3.37;;
18669;SDS011;9464;44.918;9.670;2022-10-16T05:26:55;5.00;;;3.33;;
18669;SDS011;9464;44.918;9.670;2022-10-16T05:29:23;4.03;;;3.10;;
18669;SDS011;9464;44.918;9.670;2022-10-16T05:31:52;5.27;;;3.07;;
18669;SDS011;9464;44.918;9.670;2022-10-16T05:34:22;4.27;;;2.57;;
18669;SDS011;9464;44.918;9.670;2022-10-16T05:36:50;5.83;;;3.03;;
18669;SDS011;9464;44.918;9.670;2022-10-16T05:39:18;5.00;;;2.90;;
18669;SDS011;9464;44.918;9.670;2022-10-16T05:41:46;3.80;;;3.10;;
18669;SDS011;9464;44.918;9.670;2022-10-16T05:44:16;2.97;;;2.67;;
18669;SDS011;9464;44.918;9.670;2022-10-16T05:46:45;5.17;;;2.90;;
18669;SDS011;9464;44.918;9.670;2022-10-16T05:49:14;4.17;;;2.87;;
18669;SDS011;9464;44.918;9.670;2022-10-16T05:51:43;4.37;;;2.70;;
18669;SDS011;9464;44.918;9.670;2022-10-16T05:54:12;4.10;;;3.30;;
18669;SDS011;9464;44.918;9.670;2022-10-16T05:56:40;10.53;;;5.80;;
18669;SDS011;9464;44.918;9.670;2022-10-16T05:59:08;7.37;;;4.90;;
18669;SDS011;9464;44.918;9.670;2022-10-16T06:01:36;15.40;;;6.20;;
18669;SDS011;9464;44.918;9.670;2022-10-16T06:04:04;11.53;;;6.13;;
18669;SDS011;9464;44.918;9.670;2022-10-16T06:06:32;11.70;;;6.80;;
18669;SDS011;9464;44.918;9.670;2022-10-16T06:09:03;16.27;;;7.17;;
18669;SDS011;9464;44.918;9.670;2022-10-16T06:11:32;17.70;;;8.60;;
18669;SDS011;9464;44.918;9.670;2022-10-16T06:14:01;11.87;;;8.40;;
18669;SDS011;9464;44.918;9.670;2022-10-16T06:16:33;20.77;;;11.90;;
18669;SDS011;9464;44.918;9.670;2022-10-16T06:19:03;24.63;;;13.63;;
18669;SDS011;9464;44.918;9.670;2022-10-16T06:21:32;25.47;;;14.57;;
18669;SDS011;9464;44.918;9.670;2022-10-16T06:24:01;25.93;;;14.10;;
18669;SDS011;9464;44.918;9.670;2022-10-16T06:26:30;24.83;;;14.00;;
18669;SDS011;9464;44.918;9.670;2022-10-16T06:28:59;27.20;;;14.97;;
18669;SDS011;9464;44.918;9.670;2022-10-16T06:31:27;25.40;;;15.03;;
18669;SDS011;9464;44.918;9.670;2022-10-16T06:33:57;26.77;;;15.17;;
18669;SDS011;9464;44.918;9.670;2022-10-16T06:36:25;34.33;;;18.23;;
18669;SDS011;9464;44.918;9.670;2022-10-16T06:38:54;35.10;;;18.90;;
18669;SDS011;9464;44.918;9.670;2022-10-16T06:41:22;34.37;;;19.07;;
18669;SDS011;9464;44.918;9.670;2022-10-16T06:43:52;42.33;;;20.87;;
18669;SDS011;9464;44.918;9.670;2022-10-16T06:46:22;38.13;;;20.50;;
18669;SDS011;9464;44.918;9.670;2022-10-16T06:48:52;47.47;;;25.67;;
18669;SDS011;9464;44.918;9.670;2022-10-16T06:51:20;43.47;;;24.63;;
18669;SDS011;9464;44.918;9.670;2022-10-16T06:53:50;48.77;;;26.93;;
18669;SDS011;9464;44.918;9.670;2022-10-16T06:56:29;51.97;;;27.33;;
18669;SDS011;9464;44.918;9.670;2022-10-16T06:58:59;50.37;;;27.73;;
18669;SDS011;9464;44.918;9.670;2022-10-16T07:01:28;48.70;;;28.17;;
18669;SDS011;9464;44.918;9.670;2022-10-16T07:03:57;57.67;;;28.37;;
18669;SDS011;9464;44.918;9.670;2022-10-16T07:06:25;58.40;;;31.57;;
18669;SDS011;9464;44.918;9.670;2022-10-16T07:08:54;55.23;;;30.97;;
18669;SDS011;9464;44.918;9.670;2022-10-16T07:11:23;61.20;;;31.90;;
18669;SDS011;9464;44.918;9.670;2022-10-16T07:13:51;63.73;;;34.20;;
18669;SDS011;9464;44.918;9.670;2022-10-16T07:16:24;77.30;;;38.47;;
18669;SDS011;9464;44.918;9.670;2022-10-16T07:18:53;74.90;;;39.20;;
18669;SDS011;9464;44.918;9.670;2022-10-16T07:21:25;74.88;;;42.83;;
18669;SDS011;9464;44.918;9.670;2022-10-16T07:23:56;75.33;;;38.67;;
18669;SDS011;9464;44.918;9.670;2022-10-16T07:26:25;64.63;;;33.87;;
18669;SDS011;9464;44.918;9.670;2022-10-16T07:28:54;58.67;;;28.30;;
18669;SDS011;9464;44.918;9.670;2022-10-16T07:31:24;40.23;;;23.63;;
18669;SDS011;9464;44.918;9.670;2022-10-16T07:33:53;39.43;;;20.43;;
18669;SDS011;9464;44.918;9.670;2022-10-16T07:36:22;30.43;;;16.87;;
18669;SDS011;9464;44.918;9.670;2022-10-16T07:38:50;32.83;;;15.80;;
18669;SDS011;9464;44.918;9.670;2022-10-16T07:41:24;93.10;;;53.30;;
18669;SDS011;9464;44.918;9.670;2022-10-16T07:43:52;39.40;;;20.90;;
18669;SDS011;9464;44.918;9.670;2022-10-16T07:46:21;30.03;;;16.83;;
18669;SDS011;9464;44.918;9.670;2022-10-16T07:48:51;27.13;;;15.27;;
18669;SDS011;9464;44.918;9.670;2022-10-16T07:51:20;23.47;;;14.10;;
18669;SDS011;9464;44.918;9.670;2022-10-16T07:53:49;21.33;;;12.43;;
18669;SDS011;9464;44.918;9.670;2022-10-16T07:56:18;21.03;;;10.30;;
18669;SDS011;9464;44.918;9.670;2022-10-16T07:58:46;15.03;;;8.13;;
18669;SDS011;9464;44.918;9.670;2022-10-16T08:01:16;15.43;;;9.37;;
18669;SDS011;9464;44.918;9.670;2022-10-16T08:03:46;14.80;;;8.83;;
18669;SDS011;9464;44.918;9.670;2022-10-16T08:06:16;14.73;;;9.03;;
18669;SDS011;9464;44.918;9.670;2022-10-16T08:08:52;16.27;;;9.20;;
18669;SDS011;9464;44.918;9.670;2022-10-16T08:11:20;17.07;;;9.53;;
18669;SDS011;9464;44.918;9.670;2022-10-16T08:13:49;21.93;;;12.67;;
18669;SDS011;9464;44.918;9.670;2022-10-16T08:16:17;25.77;;;13.20;;
18669;SDS011;9464;44.918;9.670;2022-10-16T08:18:45;40.53;;;22.43;;
18669;SDS011;9464;44.918;9.670;2022-10-16T08:21:14;46.83;;;26.13;;
18669;SDS011;9464;44.918;9.670;2022-10-16T08:23:46;46.37;;;26.70;;
18669;SDS011;9464;44.918;9.670;2022-10-16T08:26:23;47.87;;;25.10;;
18669;SDS011;9464;44.918;9.670;2022-10-16T08:28:51;48.10;;;26.47;;
18669;SDS011;9464;44.918;9.670;2022-10-16T08:31:20;70.10;;;40.33;;
18669;SDS011;9464;44.918;9.670;2022-10-16T08:33:49;59.93;;;34.53;;
18669;SDS011;9464;44.918;9.670;2022-10-16T08:36:19;63.33;;;31.80;;
18669;SDS011;9464;44.918;9.670;2022-10-16T08:38:48;59.73;;;32.27;;
18669;SDS011;9464;44.918;9.670;2022-10-16T08:47:21;58.17;;;31.97;;
18669;SDS011;9464;44.918;9.670;2022-10-16T08:49:55;57.40;;;29.30;;
18669;SDS011;9464;44.918;9.670;2022-10-16T08:52:28;51.50;;;28.70;;
18669;SDS011;9464;44.918;9.670;2022-10-16T08:54:58;53.47;;;30.30;;
18669;SDS011;9464;44.918;9.670;2022-10-16T08:57:26;60.93;;;31.10;;
18669;SDS011;9464;44.918;9.670;2022-10-16T08:59:55;49.57;;;28.27;;
18669;SDS011;9464;44.918;9.670;2022-10-16T09:02:29;50.07;;;28.80;;
18669;SDS011;9464;44.918;9.670;2022-10-16T09:05:02;62.07;;;32.10;;
18669;SDS011;9464;44.918;9.670;2022-10-16T09:07:51;54.13;;;29.90;;
18669;SDS011;9464;44.918;9.670;2022-10-16T09:10:33;56.27;;;29.70;;
18669;SDS011;9464;44.918;9.670;2022-10-16T09:13:14;52.20;;;28.60;;
18669;SDS011;9464;44.918;9.670;2022-10-16T09:15:47;50.90;;;27.90;;
18669;SDS011;9464;44.918;9.670;2022-10-16T09:18:22;48.13;;;27.30;;
18669;SDS011;9464;44.918;9.670;2022-10-16T09:20:59;53.50;;;26.73;;
18669;SDS011;9464;44.918;9.670;2022-10-16T09:23:35;45.50;;;26.83;;
18669;SDS011;9464;44.918;9.670;2022-10-16T09:26:04;56.73;;;27.43;;
18669;SDS011;9464;44.918;9.670;2022-10-16T09:28:37;46.10;;;25.53;;
18669;SDS011;9464;44.918;9.670;2022-10-16T09:31:05;47.27;;;24.07;;
18669;SDS011;9464;44.918;9.670;2022-10-16T09:33:40;46.20;;;26.60;;
18669;SDS011;9464;44.918;9.670;2022-10-16T09:36:11;46.63;;;26.07;;
18669;SDS011;9464;44.918;9.670;2022-10-16T09:38:41;43.50;;;25.03;;
18669;SDS011;9464;44.918;9.670;2022-10-16T09:41:19;41.53;;;22.97;;
18669;SDS011;9464;44.918;9.670;2022-10-16T09:43:52;52.13;;;26.63;;
18669;SDS011;9464;44.918;9.670;2022-10-16T09:46:25;51.10;;;25.70;;
18669;SDS011;9464;44.918;9.670;2022-10-16T09:48:56;45.97;;;25.43;;
18669;SDS011;9464;44.918;9.670;2022-10-16T09:51:26;49.13;;;25.40;;
18669;SDS011;9464;44.918;9.670;2022-10-16T09:53:58;47.53;;;28.70;;
18669;SDS011;9464;44.918;9.670;2022-10-16T09:56:28;53.53;;;30.30;;
18669;SDS011;9464;44.918;9.670;2022-10-16T09:58:59;51.87;;;28.57;;
18669;SDS011;9464;44.918;9.670;2022-10-16T10:01:30;56.83;;;30.03;;
18669;SDS011;9464;44.918;9.670;2022-10-16T10:04:04;49.40;;;28.53;;
18669;SDS011;9464;44.918;9.670;2022-10-16T10:06:33;56.23;;;29.87;;
18669;SDS011;9464;44.918;9.670;2022-10-16T10:09:06;58.17;;;29.50;;
18669;SDS011;9464;44.918;9.670;2022-10-16T10:11:54;52.80;;;29.47;;
18669;SDS011;9464;44.918;9.670;2022-10-16T10:14:27;62.33;;;31.40;;
18669;SDS011;9464;44.918;9.670;2022-10-16T10:17:08;54.07;;;29.33;;
18669;SDS011;9464;44.918;9.670;2022-10-16T10:19:47;56.93;;;31.90;;
18669;SDS011;9464;44.918;9.670;2022-10-16T10:22:22;55.70;;;31.13;;
18669;SDS011;9464;44.918;9.670;2022-10-16T10:25:07;64.70;;;33.33;;
18669;SDS011;9464;44.918;9.670;2022-10-16T10:27:50;58.03;;;30.57;;
18669;SDS011;9464;44.918;9.670;2022-10-16T10:30:29;54.20;;;27.70;;
18669;SDS011;9464;44.918;9.670;2022-10-16T10:33:09;55.80;;;28.87;;
18669;SDS011;9464;44.918;9.670;2022-10-16T10:35:48;53.30;;;29.77;;
18669;SDS011;9464;44.918;9.670;2022-10-16T10:38:29;56.47;;;29.47;;
18669;SDS011;9464;44.918;9.670;2022-10-16T10:41:11;56.80;;;29.60;;
18669;SDS011;9464;44.918;9.670;2022-10-16T10:43:59;55.30;;;28.83;;
18669;SDS011;9464;44.918;9.670;2022-10-16T10:46:34;53.43;;;27.33;;
18669;SDS011;9464;44.918;9.670;2022-10-16T10:49:16;53.30;;;27.70;;
18669;SDS011;9464;44.918;9.670;2022-10-16T10:51:58;51.07;;;28.93;;
18669;SDS011;9464;44.918;9.670;2022-10-16T10:54:39;50.17;;;28.30;;
18669;SDS011;9464;44.918;9.670;2022-10-16T10:57:19;57.10;;;30.70;;
18669;SDS011;9464;44.918;9.670;2022-10-16T11:00:02;56.57;;;29.77;;
18669;SDS011;9464;44.918;9.670;2022-10-16T11:02:37;51.30;;;30.20;;
18669;SDS011;9464;44.918;9.670;2022-10-16T11:07:57;48.33;;;27.70;;
18669;SDS011;9464;44.918;9.670;2022-10-16T11:10:28;45.17;;;25.70;;
18669;SDS011;9464;44.918;9.670;2022-10-16T11:13:17;50.63;;;26.83;;
18669;SDS011;9464;44.918;9.670;2022-10-16T11:15:51;54.33;;;27.50;;
18669;SDS011;9464;44.918;9.670;2022-10-16T11:18:24;48.23;;;25.80;;
18669;SDS011;9464;44.918;9.670;2022-10-16T11:20:58;44.37;;;24.30;;
18669;SDS011;9464;44.918;9.670;2022-10-16T11:23:33;42.03;;;24.60;;
18669;SDS011;9464;44.918;9.670;2022-10-16T11:26:09;40.77;;;22.43;;
18669;SDS011;9464;44.918;9.670;2022-10-16T11:28:45;49.97;;;26.30;;
18669;SDS011;9464;44.918;9.670;2022-10-16T11:31:16;51.23;;;26.07;;
18669;SDS011;9464;44.918;9.670;2022-10-16T11:33:51;55.20;;;29.20;;
18669;SDS011;9464;44.918;9.670;2022-10-16T11:36:25;50.70;;;27.33;;
18669;SDS011;9464;44.918;9.670;2022-10-16T11:39:00;53.27;;;27.87;;
18669;SDS011;9464;44.918;9.670;2022-10-16T11:41:37;49.40;;;27.57;;
18669;SDS011;9464;44.918;9.670;2022-10-16T11:44:16;50.67;;;25.27;;
18669;SDS011;9464;44.918;9.670;2022-10-16T11:47:01;41.13;;;22.90;;
18669;SDS011;9464;44.918;9.670;2022-10-16T11:49:57;39.07;;;20.73;;
18669;SDS011;9464;44.918;9.670;2022-10-16T11:52:28;46.10;;;24.50;;
18669;SDS011;9464;44.918;9.670;2022-10-16T11:55:04;40.53;;;24.80;;
18669;SDS011;9464;44.918;9.670;2022-10-16T11:57:41;45.63;;;24.57;;
18669;SDS011;9464;44.918;9.670;2022-10-16T12:00:20;41.50;;;22.80;;
18669;SDS011;9464;44.918;9.670;2022-10-16T12:02:53;42.00;;;23.80;;
18669;SDS011;9464;44.918;9.670;2022-10-16T12:05:32;36.40;;;21.27;;
18669;SDS011;9464;44.918;9.670;2022-10-16T12:08:08;40.97;;;22.57;;
18669;SDS011;9464;44.918;9.670;2022-10-16T12:10:37;37.90;;;21.67;;
18669;SDS011;9464;44.918;9.670;2022-10-16T12:16:05;41.10;;;21.83;;
18669;SDS011;9464;44.918;9.670;2022-10-16T12:18:35;45.30;;;23.13;;
18669;SDS011;9464;44.918;9.670;2022-10-16T12:21:03;40.93;;;22.20;;
18669;SDS011;9464;44.918;9.670;2022-10-16T12:23:33;42.03;;;23.97;;
18669;SDS011;9464;44.918;9.670;2022-10-16T12:26:05;42.03;;;23.73;;
18669;SDS011;9464;44.918;9.670;2022-10-16T12:28:33;44.30;;;24.30;;
18669;SDS011;9464;44.918;9.670;2022-10-16T12:31:03;37.37;;;22.47;;
18669;SDS011;9464;44.918;9.670;2022-10-16T12:33:35;40.63;;;23.97;;
18669;SDS011;9464;44.918;9.670;2022-10-16T12:36:08;42.63;;;23.70;;
18669;SDS011;9464;44.918;9.670;2022-10-16T12:38:45;39.33;;;21.70;;
18669;SDS011;9464;44.918;9.670;2022-10-16T12:41:23;40.33;;;22.50;;
18669;SDS011;9464;44.918;9.670;2022-10-16T12:43:53;44.27;;;24.77;;
18669;SDS011;9464;44.918;9.670;2022-10-16T12:46:24;44.73;;;23.60;;
18669;SDS011;9464;44.918;9.670;2022-10-16T12:49:14;40.57;;;23.03;;
18669;SDS011;9464;44.918;9.670;2022-10-16T12:51:56;41.83;;;22.63;;
18669;SDS011;9464;44.918;9.670;2022-10-16T12:54:27;46.23;;;23.07;;
18669;SDS011;9464;44.918;9.670;2022-10-16T12:57:03;39.50;;;22.97;;
18669;SDS011;9464;44.918;9.670;2022-10-16T12:59:47;39.23;;;22.30;;
18669;SDS011;9464;44.918;9.670;2022-10-16T13:05:42;39.97;;;23.10;;
18669;SDS011;9464;44.918;9.670;2022-10-16T13:08:25;43.97;;;24.00;;
18669;SDS011;9464;44.918;9.670;2022-10-16T13:11:03;39.93;;;23.07;;
18669;SDS011;9464;44.918;9.670;2022-10-16T13:13:46;38.30;;;21.23;;
18669;SDS011;9464;44.918;9.670;2022-10-16T13:16:24;32.17;;;20.13;;
18669;SDS011;9464;44.918;9.670;2022-10-16T13:19:03;42.13;;;23.20;;
18669;SDS011;9464;44.918;9.670;2022-10-16T13:21:47;41.90;;;24.40;;
18669;SDS011;9464;44.918;9.670;2022-10-16T13:24:26;46.00;;;24.63;;
18669;SDS011;9464;44.918;9.670;2022-10-16T13:27:10;40.23;;;22.23;;
18669;SDS011;9464;44.918;9.670;2022-10-16T13:29:48;41.73;;;23.73;;
18669;SDS011;9464;44.918;9.670;2022-10-16T13:32:21;38.70;;;24.37;;
18669;SDS011;9464;44.918;9.670;2022-10-16T13:34:49;40.60;;;22.77;;
18669;SDS011;9464;44.918;9.670;2022-10-16T13:37:21;46.40;;;24.13;;
18669;SDS011;9464;44.918;9.670;2022-10-16T13:40:01;36.77;;;21.87;;
18669;SDS011;9464;44.918;9.670;2022-10-16T13:42:34;38.83;;;21.97;;
18669;SDS011;9464;44.918;9.670;2022-10-16T13:45:03;40.20;;;21.53;;
18669;SDS011;9464;44.918;9.670;2022-10-16T13:47:31;36.63;;;20.63;;
18669;SDS011;9464;44.918;9.670;2022-10-16T13:50:00;38.30;;;21.20;;
18669;SDS011;9464;44.918;9.670;2022-10-16T13:52:32;42.23;;;23.07;;
18669;SDS011;9464;44.918;9.670;2022-10-16T13:55:00;36.90;;;21.93;;
18669;SDS011;9464;44.918;9.670;2022-10-16T13:57:28;36.90;;;21.83;;
18669;SDS011;9464;44.918;9.670;2022-10-16T13:59:56;38.33;;;21.43;;
18669;SDS011;9464;44.918;9.670;2022-10-16T14:02:25;35.50;;;21.37;;
18669;SDS011;9464;44.918;9.670;2022-10-16T14:04:56;39.20;;;23.10;;
18669;SDS011;9464;44.918;9.670;2022-10-16T14:07:25;38.93;;;21.60;;
18669;SDS011;9464;44.918;9.670;2022-10-16T14:09:57;38.83;;;20.93;;
18669;SDS011;9464;44.918;9.670;2022-10-16T14:12:31;36.70;;;20.53;;
18669;SDS011;9464;44.918;9.670;2022-10-16T14:15:00;37.00;;;20.37;;
18669;SDS011;9464;44.918;9.670;2022-10-16T14:17:29;41.83;;;22.43;;
18669;SDS011;9464;44.918;9.670;2022-10-16T14:20:00;41.73;;;23.70;;
18669;SDS011;9464;44.918;9.670;2022-10-16T14:22:33;43.27;;;23.47;;
18669;SDS011;9464;44.918;9.670;2022-10-16T14:25:27;41.03;;;24.37;;
18669;SDS011;9464;44.918;9.670;2022-10-16T14:27:57;43.50;;;23.20;;
18669;SDS011;9464;44.918;9.670;2022-10-16T14:30:33;41.43;;;24.13;;
18669;SDS011;9464;44.918;9.670;2022-10-16T14:33:03;44.13;;;23.50;;
18669;SDS011;9464;44.918;9.670;2022-10-16T14:35:33;42.97;;;24.80;;
18669;SDS011;9464;44.918;9.670;2022-10-16T14:38:03;36.53;;;21.80;;
18669;SDS011;9464;44.918;9.670;2022-10-16T14:40:35;41.77;;;23.30;;
18669;SDS011;9464;44.918;9.670;2022-10-16T14:43:04;44.27;;;23.77;;
18669;SDS011;9464;44.918;9.670;2022-10-16T14:45:33;40.33;;;21.90;;
18669;SDS011;9464;44.918;9.670;2022-10-16T14:48:03;41.03;;;21.83;;
18669;SDS011;9464;44.918;9.670;2022-10-16T14:50:45;38.37;;;22.03;;
18669;SDS011;9464;44.918;9.670;2022-10-16T14:53:13;39.70;;;23.07;;
18669;SDS011;9464;44.918;9.670;2022-10-16T14:55:43;41.70;;;23.00;;
18669;SDS011;9464;44.918;9.670;2022-10-16T14:58:13;37.63;;;20.30;;
18669;SDS011;9464;44.918;9.670;2022-10-16T15:00:43;39.97;;;22.87;;
18669;SDS011;9464;44.918;9.670;2022-10-16T15:03:11;34.67;;;21.70;;
18669;SDS011;9464;44.918;9.670;2022-10-16T15:05:39;40.00;;;21.53;;
18669;SDS011;9464;44.918;9.670;2022-10-16T15:08:07;46.57;;;24.07;;
18669;SDS011;9464;44.918;9.670;2022-10-16T15:10:38;37.57;;;22.30;;
18669;SDS011;9464;44.918;9.670;2022-10-16T15:13:13;38.67;;;22.23;;
18669;SDS011;9464;44.918;9.670;2022-10-16T15:15:42;39.20;;;22.87;;
18669;SDS011;9464;44.918;9.670;2022-10-16T15:18:11;45.47;;;24.03;;
18669;SDS011;9464;44.918;9.670;2022-10-16T15:20:41;43.57;;;21.93;;
18669;SDS011;9464;44.918;9.670;2022-10-16T15:23:10;37.23;;;22.57;;
18669;SDS011;9464;44.918;9.670;2022-10-16T15:25:42;41.00;;;22.53;;